Time;durP1;ratioP1;P1;durP2;ratioP2;P2;SDS_P1;SDS_P2;PMS_P1;PMS_P2;Temp;Humidity;BMP_temperature;BMP_pressure;BME280_temperature;BME280_humidity;BME280_pressure;Samples;Min_cycle;Max_cycle;Signal;HPM_P1;HPM_P2
2022/03/02 00:00:49;;;;;;;35.13;28.77;;;7.70;74.60;;;;;;5051851;28;20045;-90
2022/03/02 00:03:16;;;;;;;35.45;28.05;;;7.70;74.70;;;;;;5052895;28;20433;-90
2022/03/02 00:05:43;;;;;;;33.88;27.75;;;7.70;74.70;;;;;;5052960;28;20516;-90
2022/03/02 00:08:10;;;;;;;37.92;28.63;;;7.70;74.70;;;;;;5053439;28;20052;-91
2022/03/02 00:10:38;;;;;;;35.03;27.73;;;7.60;74.70;;;;;;5051634;28;20056;-89
2022/03/02 00:13:05;;;;;;;34.03;27.70;;;7.60;74.70;;;;;;5051493;28;20049;-90
2022/03/02 00:15:32;;;;;;;33.20;27.30;;;7.60;74.70;;;;;;5052659;28;20045;-90
2022/03/02 00:17:58;;;;;;;34.80;28.83;;;7.60;74.70;;;;;;5051564;28;20431;-90
2022/03/02 00:20:26;;;;;;;38.17;28.23;;;7.60;74.70;;;;;;5053204;28;20438;-90
2022/03/02 00:22:53;;;;;;;35.67;29.08;;;7.60;74.80;;;;;;5052772;28;20040;-89
2022/03/02 00:25:20;;;;;;;35.85;28.52;;;7.60;74.70;;;;;;5051260;28;20049;-90
2022/03/02 00:27:48;;;;;;;36.75;28.85;;;7.60;74.80;;;;;;5052314;28;20048;-90
2022/03/02 00:30:15;;;;;;;36.05;28.98;;;7.50;74.70;;;;;;5052442;28;20053;-90
2022/03/02 00:32:42;;;;;;;32.83;27.25;;;7.50;74.80;;;;;;5052464;28;20045;-90
2022/03/02 00:35:09;;;;;;;38.28;28.73;;;7.50;74.80;;;;;;5052819;28;20106;-89
2022/03/02 00:37:37;;;;;;;39.10;29.35;;;7.50;74.80;;;;;;5052093;28;20052;-91
2022/03/02 00:40:04;;;;;;;32.08;27.73;;;7.50;74.80;;;;;;5052170;28;20044;-89
2022/03/02 00:42:31;;;;;;;35.92;27.13;;;7.50;74.80;;;;;;5051991;28;20049;-90
2022/03/02 00:44:58;;;;;;;34.45;28.10;;;7.50;74.80;;;;;;5052370;28;20060;-90
2022/03/02 00:47:25;;;;;;;32.35;27.52;;;7.50;74.80;;;;;;5053525;28;20114;-89
2022/03/02 00:49:52;;;;;;;35.22;28.33;;;7.50;74.80;;;;;;5053023;28;20059;-90
2022/03/02 00:52:20;;;;;;;37.38;29.40;;;7.50;74.80;;;;;;5051735;28;20049;-89
2022/03/02 00:54:47;;;;;;;34.60;28.10;;;7.40;74.80;;;;;;5048978;28;20045;-91
2022/03/02 00:57:14;;;;;;;33.60;28.05;;;7.40;74.80;;;;;;5052372;28;20049;-91
2022/03/02 00:59:42;;;;;;;34.58;28.55;;;7.40;74.80;;;;;;5051981;28;20059;-90
2022/03/02 01:02:09;;;;;;;34.72;27.35;;;7.40;74.80;;;;;;5053688;28;20041;-90
2022/03/02 01:04:36;;;;;;;34.45;27.83;;;7.40;74.80;;;;;;5051459;28;20511;-90
2022/03/02 01:07:03;;;;;;;34.40;27.13;;;7.40;74.80;;;;;;5051514;28;20056;-90
2022/03/02 01:09:30;;;;;;;35.70;28.58;;;7.40;74.90;;;;;;5051720;28;20045;-89
2022/03/02 01:11:58;;;;;;;37.05;28.95;;;7.40;74.90;;;;;;5050572;28;20049;-89
2022/03/02 01:14:25;;;;;;;37.00;28.75;;;7.40;74.90;;;;;;5052534;28;20049;-90
2022/03/02 01:16:52;;;;;;;35.17;29.60;;;7.40;74.90;;;;;;5053032;28;20049;-89
2022/03/02 01:19:19;;;;;;;36.55;28.58;;;7.30;74.90;;;;;;5051111;28;20053;-90
2022/03/02 01:21:46;;;;;;;34.80;28.17;;;7.40;75.00;;;;;;5051440;28;20055;-89
2022/03/02 01:24:13;;;;;;;33.92;27.48;;;7.40;75.00;;;;;;5051443;28;20059;-89
2022/03/02 01:26:40;;;;;;;32.33;26.63;;;7.40;75.00;;;;;;5051387;28;20056;-90
2022/03/02 01:29:07;;;;;;;32.97;27.48;;;7.40;75.00;;;;;;5053327;28;20056;-90
2022/03/02 01:31:34;;;;;;;35.55;29.08;;;7.30;75.10;;;;;;5051314;28;20041;-89
2022/03/02 01:34:02;;;;;;;34.10;28.00;;;7.30;75.10;;;;;;5050693;28;20099;-89
2022/03/02 01:36:29;;;;;;;36.05;27.83;;;7.30;75.10;;;;;;5051296;28;20056;-89
2022/03/02 01:38:56;;;;;;;37.33;27.98;;;7.30;75.10;;;;;;5051186;28;20044;-89
2022/03/02 01:41:25;;;;;;;32.45;27.38;;;7.40;75.20;;;;;;5052531;28;20053;-89
2022/03/02 01:43:54;;;;;;;32.97;27.00;;;7.30;75.20;;;;;;5052506;28;20045;-90
2022/03/02 01:46:22;;;;;;;35.05;27.98;;;7.30;75.30;;;;;;5050765;28;20079;-89
2022/03/02 01:48:50;;;;;;;33.97;27.92;;;7.30;75.30;;;;;;5048498;28;20045;-89
2022/03/02 01:51:18;;;;;;;40.38;28.60;;;7.30;75.30;;;;;;5051054;28;20057;-90
2022/03/02 01:53:45;;;;;;;33.78;26.45;;;7.30;75.30;;;;;;5033291;28;20046;-90
2022/03/02 01:56:13;;;;;;;36.30;29.35;;;7.30;75.40;;;;;;5052581;28;20049;-90
2022/03/02 01:58:40;;;;;;;32.38;27.48;;;7.20;75.40;;;;;;5050842;28;20045;-89
2022/03/02 02:01:08;;;;;;;38.33;29.00;;;7.30;75.40;;;;;;5050512;28;20045;-90
2022/03/02 02:03:36;;;;;;;36.97;27.90;;;7.20;75.50;;;;;;5050389;28;20053;-88
2022/03/02 02:06:03;;;;;;;34.40;27.38;;;7.30;75.50;;;;;;5050766;28;20044;-89
2022/03/02 02:08:30;;;;;;;33.65;27.75;;;7.20;75.50;;;;;;5051062;28;20059;-90
2022/03/02 02:11:00;;;;;;;34.90;27.13;;;7.20;75.50;;;;;;5050653;28;20049;-90
2022/03/02 02:13:30;;;;;;;33.80;27.25;;;7.20;75.50;;;;;;5050406;28;20060;-90
2022/03/02 02:15:57;;;;;;;36.00;28.48;;;7.20;75.50;;;;;;5049085;28;20052;-89
2022/03/02 02:18:24;;;;;;;33.50;28.20;;;7.20;75.60;;;;;;5050124;28;20423;-90
2022/03/02 02:20:51;;;;;;;35.33;27.92;;;7.20;75.60;;;;;;5049520;28;20056;-90
2022/03/02 02:23:18;;;;;;;33.85;28.15;;;7.20;75.60;;;;;;5051851;28;20407;-89
2022/03/02 02:25:45;;;;;;;31.42;26.52;;;7.20;75.60;;;;;;5048413;28;20053;-89
2022/03/02 02:28:18;;;;;;;35.00;27.45;;;7.20;75.60;;;;;;5050275;28;20052;-89
2022/03/02 02:30:47;;;;;;;34.05;27.48;;;7.20;75.60;;;;;;5050123;28;20591;-90
2022/03/02 02:33:14;;;;;;;34.17;28.00;;;7.20;75.70;;;;;;5049950;28;20503;-89
2022/03/02 02:35:41;;;;;;;34.88;28.58;;;7.20;75.70;;;;;;5049058;28;20049;-90
2022/03/02 02:38:10;;;;;;;35.08;28.20;;;7.10;75.70;;;;;;5052059;28;20507;-90
2022/03/02 02:40:37;;;;;;;34.22;27.80;;;7.10;75.70;;;;;;5050341;28;20049;-90
2022/03/02 02:43:06;;;;;;;34.58;28.52;;;7.10;75.70;;;;;;5048965;28;20098;-90
2022/03/02 02:45:34;;;;;;;33.85;27.27;;;7.10;75.70;;;;;;5048674;28;20060;-91
2022/03/02 02:48:01;;;;;;;34.60;28.70;;;7.10;75.70;;;;;;5048964;28;20056;-90
2022/03/02 02:50:30;;;;;;;34.83;29.08;;;7.10;75.70;;;;;;5050718;28;20423;-90
2022/03/02 02:53:01;;;;;;;35.60;27.52;;;7.10;75.70;;;;;;5048817;28;20060;-90
2022/03/02 02:55:29;;;;;;;36.55;28.10;;;7.10;75.70;;;;;;5049822;28;20056;-90
2022/03/02 02:57:57;;;;;;;38.75;29.50;;;7.00;75.70;;;;;;5050032;28;20052;-90
2022/03/02 03:00:27;;;;;;;36.83;29.45;;;7.00;75.70;;;;;;5049653;28;20056;-90
2022/03/02 03:02:56;;;;;;;37.90;30.45;;;7.10;75.70;;;;;;5050146;28;20049;-89
2022/03/02 03:05:29;;;;;;;39.70;29.50;;;7.00;75.70;;;;;;5050505;28;20158;-89
2022/03/02 03:07:57;;;;;;;38.67;32.67;;;7.00;75.70;;;;;;5055280;28;20057;-89
2022/03/02 03:10:25;;;;;;;40.20;32.15;;;7.00;75.70;;;;;;5053888;28;20041;-90
2022/03/02 03:12:52;;;;;;;39.63;31.67;;;7.00;75.70;;;;;;5053721;28;20047;-90
2022/03/02 03:15:21;;;;;;;39.67;31.85;;;7.00;75.70;;;;;;5053494;28;20056;-91
2022/03/02 03:17:49;;;;;;;38.55;31.25;;;6.90;75.70;;;;;;5037096;28;20450;-90
2022/03/02 03:20:19;;;;;;;41.70;32.67;;;7.00;75.70;;;;;;5055849;28;20061;-90
2022/03/02 03:22:47;;;;;;;41.17;32.05;;;6.90;75.70;;;;;;5054116;28;20053;-90
2022/03/02 03:25:15;;;;;;;37.47;31.27;;;6.90;75.70;;;;;;5053785;28;20128;-90
2022/03/02 03:27:43;;;;;;;36.83;31.15;;;6.90;75.70;;;;;;5053919;28;20060;-89
2022/03/02 03:30:13;;;;;;;36.65;30.38;;;6.90;75.70;;;;;;5053194;28;20052;-90
2022/03/02 03:32:40;;;;;;;36.80;30.05;;;6.90;75.70;;;;;;5052336;28;20057;-90
2022/03/02 03:35:09;;;;;;;41.65;31.95;;;6.90;75.70;;;;;;5054715;28;20060;-89
2022/03/02 03:37:37;;;;;;;39.22;32.03;;;6.90;75.70;;;;;;5053473;28;20064;-90
2022/03/02 03:40:06;;;;;;;38.47;30.83;;;6.90;75.70;;;;;;5053380;28;20049;-89
2022/03/02 03:42:33;;;;;;;39.33;31.42;;;6.90;75.60;;;;;;5053499;28;20495;-90
2022/03/02 03:45:01;;;;;;;36.92;30.58;;;6.90;75.60;;;;;;5053026;28;20051;-90
2022/03/02 03:47:28;;;;;;;35.92;30.30;;;6.90;75.60;;;;;;5053927;28;20041;-90
2022/03/02 03:49:55;;;;;;;38.30;30.77;;;6.90;75.60;;;;;;5054998;28;20060;-90
2022/03/02 03:52:22;;;;;;;38.75;30.33;;;6.80;75.60;;;;;;5053114;28;20068;-90
2022/03/02 03:54:49;;;;;;;38.17;31.15;;;6.80;75.60;;;;;;5052996;28;20045;-90
2022/03/02 03:57:16;;;;;;;36.38;30.30;;;6.80;75.60;;;;;;5053154;28;20427;-90
2022/03/02 03:59:43;;;;;;;42.47;31.45;;;6.80;75.60;;;;;;5051889;28;20586;-90
2022/03/02 04:02:10;;;;;;;37.33;30.48;;;6.80;75.60;;;;;;5054825;28;20510;-92
2022/03/02 04:04:37;;;;;;;37.30;28.70;;;6.80;75.60;;;;;;5051890;28;20053;-90
2022/03/02 04:07:05;;;;;;;39.25;31.40;;;6.80;75.60;;;;;;5052836;28;20055;-90
2022/03/02 04:09:32;;;;;;;39.83;30.20;;;6.80;75.60;;;;;;5052943;28;20396;-90
2022/03/02 04:12:00;;;;;;;39.03;30.65;;;6.70;75.50;;;;;;5053173;28;20052;-91
2022/03/02 04:14:27;;;;;;;40.88;31.27;;;6.70;75.50;;;;;;5053419;28;20049;-90
2022/03/02 04:16:54;;;;;;;37.38;30.77;;;6.70;75.50;;;;;;5053625;28;20059;-90
2022/03/02 04:19:21;;;;;;;38.90;31.42;;;6.70;75.50;;;;;;5052646;28;20053;-90
2022/03/02 04:21:48;;;;;;;36.67;29.67;;;6.70;75.50;;;;;;5052506;28;20044;-89
2022/03/02 04:24:15;;;;;;;39.05;30.65;;;6.70;75.50;;;;;;5052546;28;20045;-90
2022/03/02 04:26:42;;;;;;;36.17;28.52;;;6.70;75.40;;;;;;5052013;28;20508;-91
2022/03/02 04:29:10;;;;;;;39.08;30.02;;;6.70;75.40;;;;;;5053694;28;20416;-90
2022/03/02 04:31:37;;;;;;;36.03;29.23;;;6.70;75.40;;;;;;5052536;28;20056;-90
2022/03/02 04:34:04;;;;;;;37.42;30.95;;;6.60;75.30;;;;;;5051498;28;20060;-90
2022/03/02 04:36:31;;;;;;;39.05;29.38;;;6.70;75.30;;;;;;5051198;28;20053;-91
2022/03/02 04:38:58;;;;;;;34.38;29.60;;;6.60;75.30;;;;;;5052193;28;20422;-89
2022/03/02 04:41:25;;;;;;;36.15;30.00;;;6.60;75.30;;;;;;5053066;28;20060;-90
2022/03/02 04:43:52;;;;;;;36.10;29.73;;;6.60;75.30;;;;;;5052573;28;20049;-90
2022/03/02 04:46:19;;;;;;;36.13;29.70;;;6.60;75.20;;;;;;5052159;28;20084;-90
2022/03/02 04:48:46;;;;;;;37.65;30.38;;;6.60;75.20;;;;;;5051200;28;20168;-91
2022/03/02 04:51:13;;;;;;;38.22;30.40;;;6.60;75.10;;;;;;5049833;28;20487;-90
2022/03/02 04:53:40;;;;;;;39.53;31.05;;;6.60;75.20;;;;;;5051922;28;20519;-91
2022/03/02 04:56:08;;;;;;;41.55;34.28;;;6.60;75.10;;;;;;5053514;28;20057;-90
2022/03/02 04:58:35;;;;;;;41.13;34.45;;;6.60;75.10;;;;;;5051912;28;20052;-90
2022/03/02 05:01:03;;;;;;;40.47;33.83;;;6.60;75.10;;;;;;5051863;28;20059;-91
2022/03/02 05:03:30;;;;;;;40.55;34.88;;;6.50;75.10;;;;;;5051895;28;20072;-90
2022/03/02 05:05:57;;;;;;;43.45;34.92;;;6.50;75.10;;;;;;5052063;28;20064;-92
2022/03/02 05:08:24;;;;;;;41.50;34.60;;;6.50;75.00;;;;;;5053019;28;20049;-90
2022/03/02 05:10:51;;;;;;;39.83;32.97;;;6.50;75.00;;;;;;5052513;28;20052;-90
2022/03/02 05:13:18;;;;;;;37.30;31.83;;;6.50;75.00;;;;;;5051558;28;20053;-92
2022/03/02 05:15:45;;;;;;;41.13;34.92;;;6.50;75.00;;;;;;5051481;28;20048;-90
2022/03/02 05:18:12;;;;;;;41.03;33.42;;;6.50;75.00;;;;;;5051615;28;20041;-90
2022/03/02 05:20:39;;;;;;;38.42;32.78;;;6.50;75.00;;;;;;5050472;28;20056;-90
2022/03/02 05:23:06;;;;;;;40.47;33.08;;;6.50;75.00;;;;;;5053541;28;20056;-90
2022/03/02 05:25:33;;;;;;;38.42;32.00;;;6.50;75.00;;;;;;5051014;28;20044;-90
2022/03/02 05:28:00;;;;;;;34.50;30.35;;;6.50;75.00;;;;;;5051570;28;20045;-91
2022/03/02 05:30:27;;;;;;;38.90;31.00;;;6.50;75.00;;;;;;5049634;28;20060;-91
2022/03/02 05:32:54;;;;;;;40.75;33.05;;;6.50;75.00;;;;;;5051418;28;20049;-90
2022/03/02 05:35:21;;;;;;;36.78;30.98;;;6.50;75.00;;;;;;5052657;28;20057;-90
2022/03/02 05:37:48;;;;;;;38.30;31.35;;;6.50;75.00;;;;;;5050708;28;20048;-91
2022/03/02 05:40:18;;;;;;;37.92;31.67;;;6.40;75.00;;;;;;5050897;28;20064;-90
2022/03/02 05:42:52;;;;;;;40.53;31.73;;;6.40;75.00;;;;;;5051283;28;20041;-91
2022/03/02 05:45:19;;;;;;;36.78;31.05;;;6.40;75.00;;;;;;5051237;28;20049;-90
2022/03/02 05:47:46;;;;;;;36.65;30.17;;;6.40;75.00;;;;;;5034843;28;20046;-91
2022/03/02 05:50:13;;;;;;;37.75;31.13;;;6.40;75.00;;;;;;5053125;28;20064;-91
2022/03/02 05:52:40;;;;;;;37.00;30.88;;;6.40;75.00;;;;;;5049836;28;20053;-91
2022/03/02 05:55:08;;;;;;;35.20;30.40;;;6.40;75.00;;;;;;5050703;28;20415;-91
2022/03/02 05:57:36;;;;;;;36.88;30.63;;;6.40;75.00;;;;;;5050917;28;20116;-91
2022/03/02 06:00:05;;;;;;;36.40;30.33;;;6.40;75.00;;;;;;5051131;28;20526;-91
2022/03/02 06:02:32;;;;;;;38.90;30.45;;;6.40;75.00;;;;;;5051145;28;20056;-92
2022/03/02 06:04:59;;;;;;;34.55;29.00;;;6.40;75.00;;;;;;5052692;28;20052;-90
2022/03/02 06:07:27;;;;;;;33.40;28.70;;;6.40;75.00;;;;;;5050570;28;20053;-90
2022/03/02 06:09:54;;;;;;;40.72;29.98;;;6.40;74.90;;;;;;5048608;28;20052;-91
2022/03/02 06:12:22;;;;;;;38.08;29.80;;;6.40;75.00;;;;;;5044949;28;20045;-91
2022/03/02 06:14:49;;;;;;;36.92;29.65;;;6.40;74.90;;;;;;5050016;28;20124;-89
2022/03/02 06:17:16;;;;;;;36.95;29.52;;;6.40;74.90;;;;;;5051160;28;20050;-90
2022/03/02 06:19:44;;;;;;;35.72;29.73;;;6.40;74.90;;;;;;5049525;28;20041;-91
2022/03/02 06:22:15;;;;;;;35.25;27.63;;;6.40;74.90;;;;;;5048175;28;20040;-90
2022/03/02 06:24:43;;;;;;;32.80;28.55;;;6.40;74.90;;;;;;5047434;28;20041;-91
2022/03/02 06:27:09;;;;;;;35.10;30.00;;;6.40;74.90;;;;;;5049370;28;20431;-90
2022/03/02 06:29:38;;;;;;;33.83;28.35;;;6.40;74.90;;;;;;5049815;28;20056;-89
2022/03/02 06:32:06;;;;;;;34.88;28.75;;;6.40;74.90;;;;;;5051824;28;20045;-90
2022/03/02 06:34:33;;;;;;;34.75;28.00;;;6.40;74.90;;;;;;5048862;28;20048;-90
2022/03/02 06:37:00;;;;;;;33.40;28.02;;;6.30;74.90;;;;;;5050601;28;20537;-90
2022/03/02 06:39:27;;;;;;;36.72;30.00;;;6.40;74.90;;;;;;5049531;28;20057;-90
2022/03/02 06:42:23;;;;;;;36.85;29.30;;;6.30;74.90;;;;;;5048971;28;20053;-90
2022/03/02 06:45:00;;;;;;;34.97;28.02;;;6.30;74.90;;;;;;5066636;28;20049;-91
2022/03/02 06:47:35;;;;;;;34.05;27.48;;;6.30;74.90;;;;;;5050741;28;20053;-90
2022/03/02 06:50:02;;;;;;;33.97;27.90;;;6.30;74.90;;;;;;5082733;28;20045;-91
2022/03/02 06:52:37;;;;;;;34.40;27.45;;;6.30;74.90;;;;;;5048091;28;20503;-90
2022/03/02 06:55:07;;;;;;;36.75;28.27;;;6.30;74.90;;;;;;5049710;28;20094;-90
2022/03/02 06:57:35;;;;;;;33.40;27.98;;;6.30;74.90;;;;;;5048691;28;20446;-89
2022/03/02 07:00:16;;;;;;;34.28;28.30;;;6.30;74.90;;;;;;5050178;28;20095;-91
2022/03/02 07:02:51;;;;;;;34.63;28.58;;;6.30;74.90;;;;;;5049947;28;20107;-89
2022/03/02 07:05:20;;;;;;;30.98;26.15;;;6.30;74.90;;;;;;5047977;28;20454;-90
2022/03/02 07:07:48;;;;;;;33.70;27.35;;;6.30;75.00;;;;;;5050293;28;20037;-89
2022/03/02 07:10:15;;;;;;;36.17;29.38;;;6.30;75.00;;;;;;5049849;28;20053;-89
2022/03/02 07:12:42;;;;;;;33.75;27.35;;;6.30;75.00;;;;;;5049707;28;20041;-89
2022/03/02 07:15:10;;;;;;;33.72;26.60;;;6.30;75.00;;;;;;5049785;28;20049;-91
2022/03/02 07:17:39;;;;;;;33.55;26.50;;;6.30;75.00;;;;;;5049678;28;20630;-91
2022/03/02 07:20:09;;;;;;;32.33;26.75;;;6.30;75.00;;;;;;5050483;28;20467;-89
2022/03/02 07:22:50;;;;;;;32.97;27.25;;;6.30;75.10;;;;;;5048231;28;20049;-90
2022/03/02 07:25:26;;;;;;;33.33;27.23;;;6.30;75.10;;;;;;5048340;28;20060;-92
2022/03/02 07:27:58;;;;;;;32.85;27.35;;;6.30;75.10;;;;;;5049492;28;20041;-90
2022/03/02 07:30:27;;;;;;;33.80;27.95;;;6.30;75.10;;;;;;5049461;28;20049;-91
2022/03/02 07:32:56;;;;;;;35.67;28.23;;;6.30;75.10;;;;;;5048490;28;20059;-90
2022/03/02 07:35:24;;;;;;;32.38;27.40;;;6.30;75.20;;;;;;5049325;28;20056;-90
2022/03/02 07:37:55;;;;;;;32.97;27.83;;;6.20;75.20;;;;;;5050685;28;20049;-91
2022/03/02 07:40:22;;;;;;;34.67;27.38;;;6.30;75.20;;;;;;5048516;28;20049;-91
2022/03/02 07:42:50;;;;;;;34.53;28.38;;;6.30;75.20;;;;;;5048382;28;20056;-90
2022/03/02 07:45:18;;;;;;;33.72;27.95;;;6.30;75.20;;;;;;5048127;28;20045;-89
2022/03/02 07:47:47;;;;;;;35.63;27.85;;;6.30;75.20;;;;;;5032582;28;20054;-90
2022/03/02 07:50:16;;;;;;;31.17;26.75;;;6.30;75.20;;;;;;5045939;28;20053;-92
2022/03/02 07:52:48;;;;;;;33.90;28.92;;;6.30;75.30;;;;;;5048513;28;20067;-90
2022/03/02 07:55:17;;;;;;;33.75;27.08;;;6.30;75.30;;;;;;5053096;28;20059;-90
2022/03/02 07:57:48;;;;;;;36.03;29.05;;;6.30;75.30;;;;;;5053068;28;20045;-90
2022/03/02 08:00:15;;;;;;;32.55;26.92;;;6.30;75.30;;;;;;5053145;28;20045;-91
2022/03/02 08:02:46;;;;;;;36.22;27.15;;;6.30;75.30;;;;;;5051913;28;20427;-90
2022/03/02 08:05:13;;;;;;;34.78;29.55;;;6.30;75.30;;;;;;5054808;28;20164;-91
2022/03/02 08:07:40;;;;;;;33.25;26.95;;;6.30;75.30;;;;;;5051859;28;20057;-90
2022/03/02 08:10:08;;;;;;;34.30;27.45;;;6.30;75.30;;;;;;5053180;28;20044;-90
2022/03/02 08:12:35;;;;;;;32.85;26.70;;;6.40;75.30;;;;;;5052756;28;20053;-90
2022/03/02 08:15:03;;;;;;;31.50;26.27;;;6.30;75.30;;;;;;5051927;28;20557;-90
2022/03/02 08:17:30;;;;;;;34.63;26.88;;;6.40;75.30;;;;;;5052097;28;20053;-90
2022/03/02 08:19:57;;;;;;;34.83;27.73;;;6.40;75.20;;;;;;5054336;28;20045;-91
2022/03/02 08:22:25;;;;;;;34.45;28.10;;;6.30;75.20;;;;;;5052858;28;20053;-91
2022/03/02 08:25:02;;;;;;;31.92;27.15;;;6.30;75.20;;;;;;5052732;28;20049;-91
2022/03/02 08:27:30;;;;;;;33.75;27.02;;;6.40;75.20;;;;;;5052548;28;20049;-90
2022/03/02 08:29:59;;;;;;;32.80;27.13;;;6.40;75.20;;;;;;5051720;28;20045;-91
2022/03/02 08:32:28;;;;;;;32.20;25.20;;;6.40;75.20;;;;;;5053817;28;20063;-91
2022/03/02 08:34:57;;;;;;;33.15;26.88;;;6.40;75.10;;;;;;5053721;28;20059;-91
2022/03/02 08:37:26;;;;;;;33.08;26.85;;;6.40;75.10;;;;;;5051129;28;20053;-89
2022/03/02 08:39:53;;;;;;;30.15;24.95;;;6.40;75.10;;;;;;5052543;28;20052;-91
2022/03/02 08:42:20;;;;;;;38.10;26.75;;;6.40;75.10;;;;;;5051213;28;20049;-91
2022/03/02 08:44:47;;;;;;;28.85;23.95;;;6.40;75.10;;;;;;5036624;28;20049;-91
2022/03/02 08:47:15;;;;;;;32.67;26.30;;;6.40;75.10;;;;;;5048896;28;20048;-90
2022/03/02 08:49:42;;;;;;;32.53;26.10;;;6.40;75.00;;;;;;5050806;28;20122;-90
2022/03/02 08:52:10;;;;;;;34.40;25.42;;;6.40;75.00;;;;;;5052043;28;20070;-90
2022/03/02 08:54:45;;;;;;;32.45;24.73;;;6.40;74.90;;;;;;5052013;28;20056;-90
2022/03/02 08:57:14;;;;;;;30.92;25.17;;;6.40;74.90;;;;;;5050863;28;20051;-91
2022/03/02 08:59:41;;;;;;;29.90;24.60;;;6.40;74.80;;;;;;5052162;28;20053;-90
2022/03/02 09:02:10;;;;;;;34.00;24.60;;;6.40;74.80;;;;;;5052822;28;20057;-90
2022/03/02 09:04:38;;;;;;;32.17;25.02;;;6.50;74.80;;;;;;5050765;28;20094;-89
2022/03/02 09:07:05;;;;;;;32.08;24.80;;;6.50;74.70;;;;;;5051939;28;20426;-90
2022/03/02 09:09:33;;;;;;;29.98;24.92;;;6.50;74.70;;;;;;5050788;28;20053;-91
2022/03/02 09:12:00;;;;;;;31.00;24.48;;;6.50;74.70;;;;;;5051943;28;20045;-91
2022/03/02 09:14:27;;;;;;;29.63;24.50;;;6.50;74.60;;;;;;5051693;28;20052;-90
2022/03/02 09:16:54;;;;;;;29.25;23.90;;;6.60;74.50;;;;;;5052997;28;20107;-92
2022/03/02 09:19:21;;;;;;;30.45;22.85;;;6.60;74.40;;;;;;5051670;28;20045;-90
2022/03/02 09:21:49;;;;;;;29.80;23.63;;;6.60;74.30;;;;;;5051628;28;20051;-90
2022/03/02 09:24:17;;;;;;;30.67;22.63;;;6.70;74.20;;;;;;5048914;28;20048;-92
2022/03/02 09:26:45;;;;;;;30.30;22.88;;;6.70;74.10;;;;;;5051444;28;20044;-91
2022/03/02 09:29:17;;;;;;;28.60;23.00;;;6.70;74.10;;;;;;5053494;28;20506;-91
2022/03/02 09:31:50;;;;;;;30.35;21.73;;;6.70;74.00;;;;;;5051296;28;20357;-91
2022/03/02 09:34:23;;;;;;;28.23;21.75;;;6.70;73.90;;;;;;5051360;28;20530;-91
2022/03/02 09:36:52;;;;;;;27.40;22.02;;;6.70;73.80;;;;;;5050006;28;20537;-90
2022/03/02 09:39:19;;;;;;;26.10;21.90;;;6.80;73.60;;;;;;5050374;28;20049;-91
2022/03/02 09:42:00;;;;;;;29.70;22.20;;;6.80;73.50;;;;;;5034402;28;20045;-91
2022/03/02 09:44:45;;;;;;;28.83;21.23;;;6.90;73.50;;;;;;5052261;28;20491;-92
2022/03/02 09:47:20;;;;;;;;;;;6.90;73.30;;;;;;5053003;28;20053;-92
2022/03/02 09:49:52;;;;;;;25.58;20.13;;;6.90;73.00;;;;;;5052193;28;19924;-91
2022/03/02 09:52:20;;;;;;;26.10;20.58;;;6.90;72.80;;;;;;5049969;28;20055;-92
2022/03/02 09:54:53;;;;;;;25.40;19.90;;;6.90;72.40;;;;;;5049979;28;20052;-92
2022/03/02 09:57:21;;;;;;;29.75;20.45;;;7.00;72.20;;;;;;5048928;28;20507;-91
2022/03/02 09:59:51;;;;;;;28.95;20.60;;;7.00;72.10;;;;;;5035678;28;20049;-90
2022/03/02 10:02:40;;;;;;;25.67;20.50;;;7.00;72.00;;;;;;5081248;28;20053;-90
2022/03/02 10:05:11;;;;;;;23.90;19.30;;;7.00;71.90;;;;;;5052487;28;20061;-91
2022/03/02 10:07:45;;;;;;;25.05;19.60;;;7.10;71.80;;;;;;5050193;28;20049;-92
2022/03/02 10:10:14;;;;;;;;;;;7.10;71.50;;;;;;5050701;28;20049;-92
2022/03/02 10:12:41;;;;;;;26.95;20.13;;;7.10;71.30;;;;;;5050023;28;20401;-91
2022/03/02 10:15:13;;;;;;;25.75;19.75;;;7.20;71.20;;;;;;5049398;28;20060;-93
2022/03/02 10:17:46;;;;;;;23.58;18.95;;;7.20;71.10;;;;;;5049808;28;20049;-92
2022/03/02 10:20:16;;;;;;;27.60;19.77;;;7.20;70.90;;;;;;5052033;28;20053;-92
2022/03/02 10:22:47;;;;;;;23.52;18.85;;;7.20;70.60;;;;;;5048668;28;20500;-91
2022/03/02 10:25:17;;;;;;;22.83;18.48;;;7.20;70.30;;;;;;5050717;28;20411;-92
2022/03/02 10:27:50;;;;;;;22.73;18.63;;;7.30;70.10;;;;;;5050626;28;20414;-92
2022/03/02 10:30:18;;;;;;;24.83;18.80;;;7.30;70.00;;;;;;5049635;28;20118;-92
2022/03/02 10:32:51;;;;;;;24.33;18.13;;;7.30;69.90;;;;;;5050895;28;20049;-92
2022/03/02 10:35:21;;;;;;;24.58;18.05;;;7.30;69.70;;;;;;5052565;28;20053;-92
2022/03/02 10:37:53;;;;;;;23.08;18.27;;;7.40;69.50;;;;;;5050140;28;20053;-92
2022/03/02 10:40:25;;;;;;;22.60;17.70;;;7.40;69.40;;;;;;5049560;28;20041;-92
2022/03/02 10:42:57;;;;;;;24.13;17.85;;;7.40;69.30;;;;;;5049675;28;20051;-92
2022/03/02 10:45:30;;;;;;;23.58;17.35;;;7.40;69.20;;;;;;5049362;28;20144;-93
2022/03/02 10:48:19;;;;;;;25.83;18.23;;;7.40;69.00;;;;;;5049842;28;20045;-93
2022/03/02 10:50:56;;;;;;;23.70;17.90;;;7.50;68.80;;;;;;5034666;28;20045;-93
2022/03/02 10:53:30;;;;;;;24.35;17.70;;;7.50;68.70;;;;;;5050882;28;20060;-92
2022/03/02 10:55:58;;;;;;;;;;;7.60;68.60;;;;;;5068462;28;20458;-92
2022/03/02 10:58:29;;;;;;;23.83;18.10;;;7.60;68.40;;;;;;5050250;28;19921;-92
2022/03/02 11:00:58;;;;;;;24.90;18.48;;;7.70;68.30;;;;;;5050630;28;20052;-92
2022/03/02 11:03:34;;;;;;;24.95;19.42;;;7.70;68.10;;;;;;5052002;28;20148;-92
2022/03/02 11:06:03;;;;;;;26.77;18.63;;;7.80;68.10;;;;;;5049697;28;20419;-92
2022/03/02 11:08:30;;;;;;;23.15;17.92;;;7.80;68.00;;;;;;5050893;28;20057;-92
2022/03/02 11:10:59;;;;;;;24.27;18.00;;;7.90;67.90;;;;;;5049126;28;20420;-91
2022/03/02 11:26:48;;;;;;;20.98;16.77;;;8.00;67.50;;;;;;5108217;27;20397;-88
2022/03/02 11:29:19;;;;;;;24.00;17.08;;;8.60;65.70;;;;;;5109952;28;20048;-89
2022/03/02 11:31:54;;;;;;;24.67;16.27;;;8.70;65.40;;;;;;5107964;28;20056;-88
2022/03/02 11:34:29;;;;;;;23.50;16.73;;;8.80;65.20;;;;;;5107640;28;20063;-88
2022/03/02 11:37:00;;;;;;;25.00;17.08;;;8.80;65.10;;;;;;5107546;28;20044;-88
2022/03/02 11:39:28;;;;;;;22.52;16.42;;;8.80;64.90;;;;;;5107751;28;20055;-87
2022/03/02 11:42:00;;;;;;;23.35;16.08;;;8.80;64.60;;;;;;5107750;28;20036;-89
2022/03/02 11:44:34;;;;;;;20.40;15.40;;;8.90;64.50;;;;;;5108334;28;20059;-87
2022/03/02 11:47:21;;;;;;;22.75;16.65;;;8.90;64.30;;;;;;5107815;28;20047;-88
2022/03/02 11:49:53;;;;;;;21.10;15.75;;;8.90;64.20;;;;;;5108490;28;20043;-87
2022/03/02 11:52:24;;;;;;;22.70;15.93;;;8.90;64.10;;;;;;5107290;28;20079;-88
2022/03/02 11:54:55;;;;;;;22.77;16.42;;;8.90;64.10;;;;;;5107260;28;20401;-88
2022/03/02 11:57:24;;;;;;;26.30;17.83;;;8.90;64.00;;;;;;5105875;28;20096;-88
2022/03/02 12:00:10;;;;;;;28.10;18.05;;;8.90;63.90;;;;;;5107011;28;20051;-88
2022/03/02 12:03:08;;;;;;;38.60;27.50;;;8.90;63.60;;;;;;5107232;28;20048;-87
2022/03/02 12:05:35;;;;;;;27.10;18.88;;;8.90;63.50;;;;;;5106011;28;21095;-87
2022/03/02 12:08:11;;;;;;;27.83;20.05;;;8.90;63.40;;;;;;5109202;28;20078;-87
2022/03/02 12:10:41;;;;;;;28.38;21.10;;;8.90;63.30;;;;;;5107057;28;20064;-88
2022/03/02 12:13:15;;;;;;;28.58;21.67;;;9.00;63.30;;;;;;5107152;28;20052;-89
2022/03/02 12:15:54;;;;;;;30.02;21.00;;;9.00;63.20;;;;;;5106704;28;20044;-89
2022/03/02 12:18:22;;;;;;;27.13;20.20;;;9.00;63.10;;;;;;5105722;28;20516;-89
2022/03/02 12:20:52;;;;;;;24.75;18.35;;;9.00;63.10;;;;;;5106884;28;20044;-88
2022/03/02 12:23:24;;;;;;;25.95;19.30;;;9.00;63.00;;;;;;5108400;28;20040;-89
2022/03/02 12:25:52;;;;;;;29.75;18.30;;;9.00;62.90;;;;;;5105004;28;20483;-89
2022/03/02 12:28:21;;;;;;;24.08;18.27;;;9.00;62.90;;;;;;5093139;28;20048;-88
2022/03/02 12:30:48;;;;;;;23.77;18.23;;;9.00;62.80;;;;;;5092659;28;20117;-88
2022/03/02 12:33:20;;;;;;;21.98;17.42;;;9.10;62.80;;;;;;5092998;28;20047;-87
2022/03/02 12:35:47;;;;;;;26.13;18.40;;;9.10;62.70;;;;;;5077136;28;20049;-88
2022/03/02 12:38:14;;;;;;;30.35;18.05;;;9.10;62.60;;;;;;5095223;28;20048;-87
2022/03/02 12:40:42;;;;;;;20.75;16.15;;;9.10;62.50;;;;;;5090474;28;20056;-87
2022/03/02 12:43:14;;;;;;;22.23;16.95;;;9.10;62.40;;;;;;5092417;28;20571;-87
2022/03/02 12:45:48;;;;;;;24.77;16.95;;;9.10;62.30;;;;;;5092724;28;20513;-89
2022/03/02 12:48:20;;;;;;;22.60;16.50;;;9.20;62.20;;;;;;5092848;28;20040;-88
2022/03/02 12:50:48;;;;;;;21.05;15.43;;;9.20;62.10;;;;;;5077103;28;20048;-87
2022/03/02 12:53:16;;;;;;;21.50;15.73;;;9.20;62.00;;;;;;5094795;28;20040;-87
2022/03/02 12:55:49;;;;;;;23.25;16.23;;;9.20;61.90;;;;;;5093636;28;20054;-88
2022/03/02 12:58:16;;;;;;;22.27;16.65;;;9.20;61.70;;;;;;5092191;28;20051;-87
2022/03/02 13:00:43;;;;;;;21.52;16.05;;;9.20;61.60;;;;;;5092561;28;20048;-88